createdAt,value
2022-08-26T00:02:20.583Z,59.40
2022-08-26T00:04:50.453Z,54.92
2022-08-26T00:07:19.943Z,57.50
2022-08-26T00:09:50.093Z,60.55
2022-08-26T00:12:31.502Z,56.92
2022-08-26T00:15:08.844Z,54.03
2022-08-26T00:17:40.341Z,60.50
2022-08-26T00:20:21.449Z,64.70
2022-08-26T00:22:50.788Z,63.33
2022-08-26T00:25:20.251Z,63.80
2022-08-26T00:27:50.175Z,62.70
2022-08-26T00:30:27.495Z,61.15
2022-08-26T00:32:57.505Z,60.83
2022-08-26T00:35:27.974Z,57.10
2022-08-26T00:37:58.380Z,67.93
2022-08-26T00:40:36.324Z,57.25
2022-08-26T00:43:07.584Z,77.25
2022-08-26T00:45:48.407Z,68.95
2022-08-26T00:48:21.032Z,63.83
2022-08-26T00:50:56.795Z,65.18
2022-08-26T00:53:29.990Z,68.00
2022-08-26T00:56:07.346Z,83.00
2022-08-26T00:58:40.207Z,138.75
2022-08-26T01:01:12.326Z,156.57
2022-08-26T01:03:43.798Z,140.60
2022-08-26T01:06:15.520Z,141.13
2022-08-26T01:08:44.874Z,113.10
2022-08-26T01:11:14.522Z,113.97
2022-08-26T01:13:45.917Z,86.23
2022-08-26T01:16:17.566Z,84.43
2022-08-26T01:18:47.995Z,81.22
2022-08-26T01:21:30.787Z,85.18
2022-08-26T01:24:01.972Z,90.13
2022-08-26T01:26:41.501Z,74.97
2022-08-26T01:29:19.051Z,69.72
2022-08-26T01:31:54.855Z,69.28
2022-08-26T01:34:30.450Z,69.55
2022-08-26T01:37:13.638Z,72.97
2022-08-26T01:39:48.789Z,72.95
2022-08-26T01:42:20.029Z,73.85
2022-08-26T01:45:05.202Z,72.07
2022-08-26T01:47:37.597Z,61.88
2022-08-26T01:52:51.660Z,58.40
2022-08-26T01:55:33.030Z,68.03
2022-08-26T01:58:07.003Z,56.28
2022-08-26T02:00:38.133Z,52.55
2022-08-26T02:03:18.075Z,54.95
2022-08-26T02:05:51.311Z,74.03
2022-08-26T02:08:26.778Z,58.45
2022-08-26T02:10:56.823Z,53.55
2022-08-26T02:13:31.558Z,50.05
2022-08-26T02:16:05.055Z,42.28
2022-08-26T02:18:40.753Z,49.50
2022-08-26T02:21:13.087Z,58.92
2022-08-26T02:23:42.692Z,52.50
2022-08-26T02:26:23.116Z,55.42
2022-08-26T02:29:06.535Z,56.53
2022-08-26T02:31:37.185Z,75.60
2022-08-26T02:34:13.124Z,57.22
2022-08-26T02:36:44.525Z,78.00
2022-08-26T02:39:16.904Z,52.35
2022-08-26T02:41:51.637Z,67.93
2022-08-26T02:44:20.869Z,44.30
2022-08-26T02:46:50.098Z,57.88
2022-08-26T02:49:19.468Z,43.15
2022-08-26T02:51:50.492Z,34.25
2022-08-26T02:54:22.770Z,86.43
2022-08-26T02:56:52.920Z,41.92
2022-08-26T02:59:24.479Z,33.95
2022-08-26T03:01:56.105Z,35.03
2022-08-26T03:04:26.245Z,81.05
2022-08-26T03:06:56.334Z,43.67
2022-08-26T03:09:26.328Z,35.22
2022-08-26T03:11:56.448Z,41.45
2022-08-26T03:14:26.073Z,51.35
2022-08-26T03:16:56.438Z,43.13
2022-08-26T03:19:27.204Z,55.00
2022-08-26T03:21:57.857Z,40.97
2022-08-26T03:24:27.805Z,46.88
2022-08-26T03:26:57.164Z,46.72
2022-08-26T03:29:44.742Z,64.20
2022-08-26T03:32:19.129Z,42.95
2022-08-26T03:34:48.829Z,58.25
2022-08-26T03:37:18.125Z,31.05
2022-08-26T03:39:48.122Z,41.97
2022-08-26T03:42:17.741Z,39.58
2022-08-26T03:44:52.646Z,42.22
2022-08-26T03:47:21.936Z,40.70
2022-08-26T03:49:51.075Z,94.57
2022-08-26T03:52:20.984Z,54.42
2022-08-26T03:54:50.303Z,43.88
2022-08-26T03:57:19.742Z,59.25
2022-08-26T03:59:48.663Z,55.70
2022-08-26T04:02:18.370Z,98.57
2022-08-26T04:04:47.907Z,75.75
2022-08-26T04:07:17.232Z,46.70
2022-08-26T04:09:47.778Z,78.75
2022-08-26T04:12:18.118Z,67.73
2022-08-26T04:14:48.503Z,76.30
2022-08-26T04:17:17.729Z,84.78
2022-08-26T04:19:46.885Z,72.68
2022-08-26T04:22:16.280Z,73.55
2022-08-26T04:24:54.225Z,61.83
2022-08-26T04:27:25.364Z,59.50
2022-08-26T04:29:55.290Z,66.70
2022-08-26T04:32:24.784Z,67.45
2022-08-26T04:34:54.059Z,70.43
2022-08-26T04:37:23.096Z,65.38
2022-08-26T04:39:55.374Z,75.55
2022-08-26T04:42:26.255Z,67.82
2022-08-26T04:44:56.440Z,80.97
2022-08-26T04:47:30.346Z,102.75
2022-08-26T04:50:02.135Z,74.70
2022-08-26T04:52:31.202Z,73.97
2022-08-26T04:55:00.182Z,65.32
2022-08-26T04:57:29.728Z,67.47
2022-08-26T04:59:58.982Z,67.00
2022-08-26T05:02:29.780Z,73.65
2022-08-26T05:04:59.369Z,74.65
2022-08-26T05:07:29.090Z,79.07
2022-08-26T05:09:59.148Z,96.43
2022-08-26T05:12:31.293Z,82.25
2022-08-26T05:15:01.035Z,90.07
2022-08-26T05:17:30.493Z,75.00
2022-08-26T05:19:59.658Z,58.42
2022-08-26T05:22:29.170Z,78.75
2022-08-26T05:24:58.325Z,91.18
2022-08-26T05:27:27.601Z,94.30
2022-08-26T05:29:59.857Z,96.97
2022-08-26T05:32:30.362Z,96.25
2022-08-26T05:34:59.489Z,92.68
2022-08-26T05:37:32.004Z,87.18
2022-08-26T05:40:03.565Z,102.07
2022-08-26T05:42:33.134Z,102.18
2022-08-26T05:45:03.628Z,87.72
2022-08-26T05:47:34.043Z,74.97
2022-08-26T05:50:06.530Z,73.40
2022-08-26T05:52:36.622Z,59.67
2022-08-26T05:55:07.748Z,53.97
2022-08-26T05:57:42.236Z,51.70
2022-08-26T06:00:13.965Z,52.30
2022-08-26T06:02:43.982Z,62.58
2022-08-26T06:05:17.889Z,72.55
2022-08-26T06:08:05.326Z,74.10
2022-08-26T06:10:37.348Z,72.80
2022-08-26T06:13:12.545Z,74.35
2022-08-26T06:15:47.478Z,90.47
2022-08-26T06:18:19.001Z,67.18
2022-08-26T06:20:54.582Z,67.75
2022-08-26T06:23:47.594Z,69.47
2022-08-26T06:26:18.150Z,82.75
2022-08-26T06:28:47.341Z,74.45
2022-08-26T06:31:17.057Z,68.95
2022-08-26T06:33:46.864Z,78.35
2022-08-26T06:36:21.232Z,57.58
2022-08-26T06:38:51.390Z,59.30
2022-08-26T06:41:24.118Z,65.82
2022-08-26T06:43:54.424Z,71.68
2022-08-26T06:46:23.887Z,64.82
2022-08-26T06:48:56.389Z,64.63
2022-08-26T06:51:29.168Z,73.65
2022-08-26T06:54:01.261Z,63.67
2022-08-26T06:56:36.289Z,63.33
2022-08-26T06:59:07.240Z,71.68
2022-08-26T07:01:43.011Z,66.85
2022-08-26T07:04:20.218Z,70.57
2022-08-26T07:06:53.849Z,63.47
2022-08-26T07:09:25.621Z,64.47
2022-08-26T07:14:27.331Z,63.67
2022-08-26T07:16:56.928Z,64.50
2022-08-26T07:19:29.882Z,65.60
2022-08-26T07:22:06.778Z,60.70
2022-08-26T07:24:44.326Z,67.75
2022-08-26T07:27:18.440Z,63.42
2022-08-26T07:29:48.194Z,68.43
2022-08-26T07:32:22.847Z,58.97
2022-08-26T07:34:52.787Z,66.78
2022-08-26T07:37:22.285Z,64.93
2022-08-26T07:39:52.575Z,49.17
2022-08-26T07:42:22.172Z,57.42
2022-08-26T07:44:51.897Z,48.15
2022-08-26T07:47:25.430Z,55.00
2022-08-26T07:49:59.474Z,58.85
2022-08-26T07:52:32.010Z,50.55
2022-08-26T07:55:04.098Z,56.15
2022-08-26T07:57:33.961Z,55.78
2022-08-26T08:00:07.631Z,59.13
2022-08-26T08:02:41.010Z,55.72
2022-08-26T08:05:10.820Z,75.53
2022-08-26T08:07:45.348Z,69.78
2022-08-26T08:10:19.345Z,75.60
2022-08-26T08:12:51.917Z,84.82
2022-08-26T08:15:25.993Z,89.55
2022-08-26T08:17:56.622Z,76.57
2022-08-26T08:20:29.551Z,65.43
2022-08-26T08:22:59.600Z,84.35
2022-08-26T08:25:28.703Z,63.45
2022-08-26T08:27:57.736Z,59.50
2022-08-26T08:30:28.056Z,65.72
2022-08-26T08:32:57.678Z,59.80
2022-08-26T08:35:27.430Z,54.00
2022-08-26T08:37:58.031Z,52.90
2022-08-26T08:40:29.281Z,62.35
2022-08-26T08:43:01.573Z,44.45
2022-08-26T08:48:15.248Z,32.10
2022-08-26T08:50:50.466Z,28.25
2022-08-26T08:53:35.096Z,26.83
2022-08-26T08:56:12.732Z,26.48
2022-08-26T08:59:12.459Z,25.88
2022-08-26T09:02:01.993Z,32.17
2022-08-26T09:04:43.654Z,27.05
2022-08-26T09:07:19.908Z,17.30
2022-08-26T09:10:01.034Z,10.88
2022-08-26T09:12:32.888Z,20.77
2022-08-26T09:15:22.217Z,15.45
2022-08-26T09:18:13.269Z,16.88
2022-08-26T09:20:58.453Z,18.25
2022-08-26T09:23:28.399Z,17.17
2022-08-26T09:26:01.468Z,21.33
2022-08-26T09:28:32.815Z,19.42
2022-08-26T09:31:16.048Z,26.83
2022-08-26T09:33:46.035Z,25.55
2022-08-26T09:36:17.135Z,27.20
2022-08-26T09:38:47.383Z,22.02
2022-08-26T09:41:26.939Z,15.35
2022-08-26T09:44:17.885Z,24.75
2022-08-26T09:47:03.669Z,16.02
2022-08-26T09:49:42.778Z,15.68
2022-08-26T09:52:17.229Z,23.45
2022-08-26T09:54:59.790Z,30.48
2022-08-26T09:57:32.826Z,37.58
2022-08-26T10:00:02.611Z,50.90
2022-08-26T10:02:47.833Z,39.72
2022-08-26T10:05:31.818Z,34.58
2022-08-26T10:08:01.559Z,27.48
2022-08-26T10:10:40.910Z,25.15
2022-08-26T10:13:24.490Z,41.45
2022-08-26T10:16:28.605Z,24.17
2022-08-26T10:19:09.459Z,18.83
2022-08-26T10:21:54.012Z,19.83
2022-08-26T10:24:32.009Z,22.92
2022-08-26T10:27:37.150Z,22.85
2022-08-26T10:30:14.576Z,23.52
2022-08-26T10:32:50.545Z,25.42
2022-08-26T10:35:20.954Z,25.33
2022-08-26T10:37:58.096Z,26.55
2022-08-26T10:40:29.197Z,25.08
2022-08-26T10:43:11.335Z,21.85
2022-08-26T10:48:45.484Z,24.25
2022-08-26T10:51:17.713Z,20.17
2022-08-26T10:53:51.704Z,24.75
2022-08-26T10:56:46.009Z,23.45
2022-08-26T10:59:50.831Z,31.50
2022-08-26T11:02:46.953Z,22.50
2022-08-26T11:05:21.244Z,25.50
2022-08-26T11:07:57.455Z,22.15
2022-08-26T11:10:26.834Z,24.90
2022-08-26T11:13:08.042Z,24.77
2022-08-26T11:15:40.338Z,28.23
2022-08-26T11:18:33.594Z,26.33
2022-08-26T11:21:03.592Z,25.52
2022-08-26T11:23:50.695Z,29.30
2022-08-26T11:26:55.027Z,29.88
2022-08-26T11:29:58.416Z,33.72
2022-08-26T11:32:50.772Z,41.08
2022-08-26T11:35:26.058Z,38.35
2022-08-26T11:38:00.735Z,38.90
2022-08-26T11:40:39.444Z,28.17
2022-08-26T11:43:20.653Z,25.77
2022-08-26T11:46:01.589Z,28.75
2022-08-26T11:48:35.965Z,27.17
2022-08-26T11:51:24.217Z,26.25
2022-08-26T11:54:09.202Z,23.17
2022-08-26T11:56:40.783Z,22.05
2022-08-26T11:59:17.409Z,26.38
2022-08-26T12:01:51.891Z,25.00
2022-08-26T12:04:50.429Z,34.55
2022-08-26T12:07:26.332Z,122.22
2022-08-26T12:10:02.082Z,163.75
2022-08-26T12:12:43.510Z,61.22
2022-08-26T12:15:18.213Z,74.03
2022-08-26T12:17:53.382Z,126.03
2022-08-26T12:20:49.534Z,156.20
2022-08-26T12:23:37.808Z,135.10
2022-08-26T12:26:28.655Z,131.25
2022-08-26T12:29:02.180Z,105.95
2022-08-26T12:31:44.331Z,83.53
2022-08-26T12:34:19.556Z,43.93
2022-08-26T12:39:38.899Z,40.50
2022-08-26T12:42:25.830Z,33.72
2022-08-26T12:45:05.107Z,36.13
2022-08-26T12:47:44.211Z,56.90
2022-08-26T12:50:27.052Z,83.85
2022-08-26T12:53:03.129Z,76.85
2022-08-26T12:55:40.261Z,58.38
2022-08-26T12:58:32.640Z,65.53
2022-08-26T13:01:09.465Z,60.35
2022-08-26T13:03:38.724Z,60.20
2022-08-26T13:06:16.046Z,48.83
2022-08-26T13:09:07.505Z,52.03
2022-08-26T13:11:56.579Z,55.40
2022-08-26T13:14:26.122Z,52.25
2022-08-26T13:16:55.941Z,52.95
2022-08-26T13:19:27.203Z,59.72
2022-08-26T13:21:59.307Z,68.95
2022-08-26T13:24:39.862Z,66.20
2022-08-26T13:27:11.079Z,71.00
2022-08-26T13:29:40.790Z,81.75
2022-08-26T13:32:11.103Z,74.45
2022-08-26T13:34:41.575Z,75.30
2022-08-26T13:37:10.811Z,82.47
2022-08-26T13:39:40.466Z,79.65
2022-08-26T13:42:10.499Z,78.60
2022-08-26T13:44:40.146Z,79.13
2022-08-26T13:47:09.629Z,89.07
2022-08-26T13:49:38.715Z,84.82
2022-08-26T13:52:07.923Z,96.53
2022-08-26T13:54:37.397Z,96.50
2022-08-26T13:57:07.186Z,92.32
2022-08-26T13:59:36.486Z,91.22
2022-08-26T14:02:05.961Z,97.28
2022-08-26T14:04:35.298Z,91.53
2022-08-26T14:07:05.954Z,77.47
2022-08-26T14:09:38.295Z,77.97
2022-08-26T14:12:07.857Z,80.72
2022-08-26T14:14:37.272Z,77.60
2022-08-26T14:17:06.317Z,76.80
2022-08-26T14:19:35.773Z,73.85
2022-08-26T14:22:06.035Z,68.15
2022-08-26T14:24:35.347Z,80.82
2022-08-26T14:27:04.594Z,92.47
2022-08-26T14:29:33.700Z,108.32
2022-08-26T14:32:08.366Z,111.57
2022-08-26T14:34:37.560Z,114.07
2022-08-26T14:37:08.169Z,109.25
2022-08-26T14:39:39.164Z,106.78
2022-08-26T14:42:09.996Z,102.50
2022-08-26T14:44:40.326Z,97.72
2022-08-26T14:47:10.271Z,106.78
2022-08-26T14:49:39.564Z,98.90
2022-08-26T14:52:08.836Z,95.07
2022-08-26T14:54:38.794Z,92.30
2022-08-26T14:57:11.511Z,94.82
2022-08-26T14:59:50.077Z,95.55
2022-08-26T15:02:33.196Z,104.30
2022-08-26T15:05:06.547Z,101.25
2022-08-26T15:07:36.247Z,96.97
2022-08-26T15:10:07.239Z,96.72
2022-08-26T15:12:36.783Z,108.05
2022-08-26T15:15:08.458Z,99.65
2022-08-26T15:17:39.667Z,102.60
2022-08-26T15:20:12.283Z,106.22
2022-08-26T15:22:44.337Z,101.07
2022-08-26T15:25:14.879Z,101.80
2022-08-26T15:27:44.407Z,99.88
2022-08-26T15:30:15.324Z,103.30
2022-08-26T15:32:44.539Z,101.10
2022-08-26T15:35:13.821Z,102.40
2022-08-26T15:37:43.019Z,121.53
2022-08-26T15:40:13.118Z,116.85
2022-08-26T15:42:42.296Z,111.85
2022-08-26T15:45:12.840Z,115.05
2022-08-26T15:48:10.888Z,113.95
2022-08-26T15:50:52.233Z,110.18
2022-08-26T15:53:23.047Z,110.28
2022-08-26T15:55:56.329Z,113.05
2022-08-26T15:58:27.293Z,108.43
2022-08-26T16:00:57.934Z,101.28
2022-08-26T16:03:27.201Z,99.13
2022-08-26T16:05:56.256Z,101.68
2022-08-26T16:08:25.589Z,98.60
2022-08-26T16:11:03.344Z,107.35
2022-08-26T16:13:39.708Z,94.47
2022-08-26T16:16:09.884Z,89.32
2022-08-26T16:18:39.195Z,102.97
2022-08-26T16:21:13.328Z,99.35
2022-08-26T16:23:45.263Z,103.20
2022-08-26T16:26:19.136Z,89.65
2022-08-26T16:28:48.806Z,99.47
2022-08-26T16:31:18.223Z,109.13
2022-08-26T16:33:47.644Z,114.38
2022-08-26T16:36:17.553Z,113.53
2022-08-26T16:38:54.583Z,131.52
2022-08-26T16:41:28.148Z,132.23
2022-08-26T16:43:57.712Z,113.72
2022-08-26T16:46:28.760Z,102.38
2022-08-26T16:48:59.934Z,99.27
2022-08-26T16:51:29.996Z,92.20
2022-08-26T16:54:00.473Z,93.93
2022-08-26T16:56:34.033Z,98.05
2022-08-26T16:59:06.241Z,96.70
2022-08-26T17:01:35.928Z,105.43
2022-08-26T17:04:05.170Z,113.57
2022-08-26T17:06:35.248Z,118.50
2022-08-26T17:09:04.995Z,122.50
2022-08-26T17:11:34.678Z,123.88
2022-08-26T17:14:04.146Z,127.95
2022-08-26T17:16:33.771Z,129.93
2022-08-26T17:19:03.780Z,118.03
2022-08-26T17:21:35.514Z,100.45
2022-08-26T17:24:08.246Z,89.65
2022-08-26T17:26:38.737Z,97.45
2022-08-26T17:29:08.486Z,94.47
2022-08-26T17:31:37.660Z,102.00
2022-08-26T17:34:07.401Z,100.93
2022-08-26T17:36:36.485Z,100.47
2022-08-26T17:39:05.735Z,96.70
2022-08-26T17:41:34.867Z,96.95
2022-08-26T17:44:04.173Z,94.65
2022-08-26T17:46:38.200Z,91.18
2022-08-26T17:49:07.692Z,100.97
2022-08-26T17:51:36.850Z,104.95
2022-08-26T17:54:06.196Z,101.13
2022-08-26T17:56:35.433Z,109.68
2022-08-26T17:59:05.217Z,115.65
2022-08-26T18:01:34.781Z,122.20
2022-08-26T18:04:05.405Z,115.70
2022-08-26T18:06:35.946Z,122.20
2022-08-26T18:09:05.406Z,115.72
2022-08-26T18:11:34.984Z,121.20
2022-08-26T18:14:04.013Z,130.43
2022-08-26T18:16:39.742Z,126.63
2022-08-26T18:19:09.878Z,137.20
2022-08-26T18:21:40.246Z,125.20
2022-08-26T18:24:13.823Z,120.15
2022-08-26T18:26:49.829Z,123.88
2022-08-26T18:29:20.886Z,141.15
2022-08-26T18:31:50.777Z,152.13
2022-08-26T18:34:20.581Z,143.77
2022-08-26T18:36:50.001Z,140.63
2022-08-26T18:39:22.122Z,138.50
2022-08-26T18:41:54.213Z,139.88
2022-08-26T18:44:24.484Z,136.38
2022-08-26T18:46:54.077Z,154.82
2022-08-26T18:49:23.880Z,151.10
2022-08-26T18:51:53.418Z,155.20
2022-08-26T18:54:22.471Z,158.05
2022-08-26T18:56:53.324Z,163.10
2022-08-26T18:59:28.473Z,169.40
2022-08-26T19:02:00.139Z,171.88
2022-08-26T19:04:29.462Z,162.15
2022-08-26T19:06:58.916Z,169.57
2022-08-26T19:09:28.422Z,161.20
2022-08-26T19:11:57.834Z,170.20
2022-08-26T19:14:27.821Z,158.77
2022-08-26T19:16:57.163Z,157.18
2022-08-26T19:19:26.205Z,164.60
2022-08-26T19:21:56.330Z,159.82
2022-08-26T19:24:27.413Z,151.48
2022-08-26T19:27:01.172Z,146.27
2022-08-26T19:29:34.071Z,153.43
2022-08-26T19:32:04.319Z,148.52
2022-08-26T19:34:33.901Z,142.82
2022-08-26T19:37:03.490Z,146.27
2022-08-26T19:39:32.927Z,134.77
2022-08-26T19:42:01.920Z,137.02
2022-08-26T19:44:49.766Z,131.65
2022-08-26T19:47:18.987Z,118.25
2022-08-26T19:49:48.086Z,127.80
2022-08-26T19:52:18.133Z,114.45
2022-08-26T19:54:47.188Z,117.90
2022-08-26T19:57:16.907Z,123.28
2022-08-26T19:59:46.554Z,113.35
2022-08-26T20:02:16.458Z,129.27
2022-08-26T20:04:45.733Z,136.55
2022-08-26T20:07:18.506Z,137.05
2022-08-26T20:09:49.895Z,159.02
2022-08-26T20:12:19.810Z,164.45
2022-08-26T20:14:49.168Z,155.07
2022-08-26T20:17:18.388Z,169.77
2022-08-26T20:20:06.622Z,173.27
2022-08-26T20:22:56.303Z,190.52
2022-08-26T20:25:25.831Z,180.13
2022-08-26T20:27:54.743Z,192.00
2022-08-26T20:30:23.889Z,198.13
2022-08-26T20:32:53.803Z,204.55
2022-08-26T20:35:24.894Z,190.57
2022-08-26T20:37:54.136Z,198.93
2022-08-26T20:40:23.664Z,193.25
2022-08-26T20:42:52.855Z,207.77
2022-08-26T20:45:22.259Z,205.13
2022-08-26T20:47:51.861Z,196.63
2022-08-26T20:50:21.324Z,199.20
2022-08-26T20:52:50.901Z,198.63
2022-08-26T20:55:20.197Z,188.43
2022-08-26T20:57:50.433Z,189.15
2022-08-26T21:00:24.565Z,194.73
2022-08-26T21:02:57.407Z,180.30
2022-08-26T21:05:27.657Z,183.93
2022-08-26T21:07:56.983Z,195.27
2022-08-26T21:10:26.639Z,200.93
2022-08-26T21:12:55.878Z,196.40
2022-08-26T21:15:25.452Z,186.95
2022-08-26T21:17:55.058Z,190.20
2022-08-26T21:20:25.573Z,184.90
2022-08-26T21:22:54.612Z,175.02
2022-08-26T21:25:23.882Z,177.07
2022-08-26T21:27:53.424Z,175.30
2022-08-26T21:30:22.533Z,175.48
2022-08-26T21:32:51.756Z,176.00
2022-08-26T21:35:20.888Z,177.63
2022-08-26T21:37:50.204Z,184.18
2022-08-26T21:40:19.561Z,193.35
2022-08-26T21:42:49.002Z,193.07
2022-08-26T21:45:18.358Z,179.05
2022-08-26T21:47:47.786Z,184.38
2022-08-26T21:50:17.116Z,182.95
2022-08-26T21:52:46.284Z,173.63
2022-08-26T21:55:15.321Z,186.35
2022-08-26T21:57:44.657Z,188.20
2022-08-26T22:00:16.726Z,170.93
2022-08-26T22:02:46.565Z,190.82
2022-08-26T22:05:15.586Z,195.45
2022-08-26T22:07:44.932Z,181.85
2022-08-26T22:10:14.233Z,189.80
2022-08-26T22:12:43.445Z,191.20
2022-08-26T22:15:13.288Z,197.75
2022-08-26T22:17:42.408Z,203.55
2022-08-26T22:20:16.726Z,206.15
2022-08-26T22:22:46.251Z,196.75
2022-08-26T22:25:15.350Z,211.50
2022-08-26T22:27:44.933Z,211.93
2022-08-26T22:30:14.242Z,204.57
2022-08-26T22:32:45.101Z,210.27
2022-08-26T22:35:28.774Z,199.43
2022-08-26T22:38:00.094Z,204.98
2022-08-26T22:40:29.395Z,211.25
2022-08-26T22:42:58.791Z,221.70
2022-08-26T22:45:32.477Z,196.70
2022-08-26T22:48:05.672Z,205.55
2022-08-26T22:50:35.195Z,209.35
2022-08-26T22:53:04.629Z,218.68
2022-08-26T22:55:33.891Z,217.50
2022-08-26T22:58:02.955Z,210.18
2022-08-26T23:00:32.612Z,216.55
2022-08-26T23:03:03.808Z,226.82
2022-08-26T23:05:33.640Z,217.07
2022-08-26T23:08:03.095Z,217.02
2022-08-26T23:10:34.145Z,205.65
2022-08-26T23:13:04.675Z,210.57
2022-08-26T23:15:33.709Z,196.63
2022-08-26T23:18:03.679Z,211.70
2022-08-26T23:20:33.992Z,196.02
2022-08-26T23:23:03.748Z,197.20
2022-08-26T23:25:33.708Z,189.55
2022-08-26T23:28:03.226Z,189.57
2022-08-26T23:30:35.647Z,187.40
2022-08-26T23:33:05.069Z,185.40
2022-08-26T23:35:34.030Z,178.68
2022-08-26T23:38:03.826Z,195.80
2022-08-26T23:40:36.969Z,187.82
2022-08-26T23:43:09.883Z,190.02
2022-08-26T23:45:39.541Z,175.18
2022-08-26T23:48:09.919Z,186.88
2022-08-26T23:50:57.796Z,179.15
2022-08-26T23:53:26.968Z,175.55
2022-08-26T23:55:56.477Z,174.43
2022-08-26T23:58:25.660Z,163.75
